Time;durP1;ratioP1;P1;durP2;ratioP2;P2;SDS_P1;SDS_P2;PMS_P1;PMS_P2;Temp;Humidity;BMP_temperature;BMP_pressure;BME280_temperature;BME280_humidity;BME280_pressure;Samples;Min_cycle;Max_cycle;Signal;HPM_P1;HPM_P2
2022/07/23 00:00:29;;;;;;;;;27.00;24.25;;;;;21.47;84.21;101611.53;5094727;27;50595;-67
2022/07/23 00:02:54;;;;;;;;;26.50;25.00;;;;;21.48;84.21;101608.84;5095010;27;49730;-71
2022/07/23 00:05:19;;;;;;;;;26.00;24.75;;;;;21.50;84.18;101616.84;5095077;27;49839;-77
2022/07/23 00:07:45;;;;;;;;;27.75;25.00;;;;;21.29;83.85;101577.88;5095098;27;49690;-78
2022/07/23 00:10:10;;;;;;;;;26.75;24.00;;;;;21.40;84.61;101595.56;5094324;27;57522;-77
2022/07/23 00:12:35;;;;;;;;;32.00;29.50;;;;;21.33;84.49;101576.97;5094607;27;49570;-76
2022/07/23 00:15:02;;;;;;;;;31.00;27.00;;;;;21.45;84.80;101603.53;5094642;27;50540;-77
2022/07/23 00:17:28;;;;;;;;;32.00;30.00;;;;;21.42;85.31;101604.47;5094779;27;49793;-78
2022/07/23 00:19:53;;;;;;;;;40.75;34.50;;;;;21.33;84.99;101588.53;5094473;27;50695;-77
2022/07/23 00:22:19;;;;;;;;;37.75;32.75;;;;;21.49;85.65;101610.63;5094751;27;49722;-77
2022/07/23 00:24:44;;;;;;;;;39.50;35.75;;;;;21.48;85.66;101621.31;5094876;27;49963;-77
2022/07/23 00:27:09;;;;;;;;;35.75;32.25;;;;;21.46;86.00;101613.31;5094464;27;49932;-77
2022/07/23 00:29:35;;;;;;;;;32.75;30.00;;;;;21.33;86.10;101593.00;5094050;27;49826;-78
2022/07/23 00:32:00;;;;;;;;;33.50;30.75;;;;;21.36;85.80;101603.66;5094485;27;49667;-74
2022/07/23 00:34:25;;;;;;;;;31.25;29.25;;;;;21.38;86.04;101613.41;5094632;27;49749;-77
2022/07/23 00:36:53;;;;;;;;;38.50;31.75;;;;;21.36;86.11;101611.66;5094551;27;49958;-77
2022/07/23 00:39:18;;;;;;;;;29.25;28.50;;;;;21.34;85.63;101610.78;5094182;27;50626;-73
2022/07/23 00:41:44;;;;;;;;;39.00;31.25;;;;;21.28;85.63;101616.19;5093180;27;49861;-76
2022/07/23 00:44:38;;;;;;;;;34.25;31.00;;;;;21.27;85.38;101601.94;5094133;27;49592;-67
2022/07/23 00:47:05;;;;;;;;;34.75;32.00;;;;;21.07;85.15;101567.41;5089503;27;49966;-67
2022/07/23 00:49:31;;;;;;;;;28.00;28.00;;;;;21.29;85.15;101604.59;5093985;27;50695;-67
2022/07/23 00:51:57;;;;;;;;;34.00;30.50;;;;;21.26;85.17;101605.53;5094284;27;49986;-67
2022/07/23 00:54:24;;;;;;;;;36.25;33.50;;;;;21.15;85.24;101586.03;5094293;27;49734;-67
2022/07/23 00:56:50;;;;;;;;;40.25;32.25;;;;;21.16;85.35;101587.78;5094446;27;49577;-68
2022/07/23 00:59:15;;;;;;;;;26.50;26.50;;;;;21.22;85.31;101600.16;5093774;27;50631;-68
2022/07/23 01:01:43;;;;;;;;;27.00;26.50;;;;;21.24;85.31;101604.63;5093601;27;49729;-67
2022/07/23 01:04:09;;;;;;;;;26.00;24.50;;;;;21.21;85.24;101603.75;5094165;27;49668;-70
2022/07/23 01:06:37;;;;;;;;;30.25;29.50;;;;;21.03;85.38;101583.44;5094302;27;49759;-70
2022/07/23 01:09:05;;;;;;;;;28.50;25.00;;;;;21.17;85.02;101594.91;5093723;27;50635;-75
2022/07/23 01:11:32;;;;;;;;;27.00;26.75;;;;;21.21;85.30;101603.75;5093847;27;49822;-70
2022/07/23 01:13:58;;;;;;;;;31.00;30.00;;;;;21.21;85.79;101598.41;5093584;27;49743;-76
2022/07/23 01:16:23;;;;;;;;;26.25;24.25;;;;;21.09;84.94;101578.06;5094332;27;49848;-76
2022/07/23 01:18:48;;;;;;;;;26.75;24.50;;;;;21.18;84.61;101596.66;5093730;27;49933;-75
2022/07/23 01:21:18;;;;;;;;;31.75;30.50;;;;;21.20;84.71;101593.97;5093788;27;49851;-76
2022/07/23 01:23:43;;;;;;;;;20.25;20.25;;;;;21.08;83.75;101585.19;5092787;27;49826;-76
2022/07/23 01:26:09;;;;;;;;;26.25;26.00;;;;;21.17;83.84;101591.34;5093972;27;49931;-76
2022/07/23 01:28:34;;;;;;;;;26.50;25.50;;;;;21.01;83.65;101567.44;5093284;27;50947;-76
2022/07/23 01:30:59;;;;;;;;;30.50;28.50;;;;;21.13;83.97;101593.13;5093923;27;50323;-77
2022/07/23 01:33:25;;;;;;;;;20.75;20.00;;;;;20.89;83.44;101561.34;5093821;27;49500;-77
2022/07/23 01:35:50;;;;;;;;;28.75;26.25;;;;;21.13;83.49;101594.06;5093991;27;49897;-76
2022/07/23 01:38:15;;;;;;;;;26.50;23.00;;;;;21.05;83.17;101579.88;5093399;27;51122;-74
2022/07/23 01:40:41;;;;;;;;;26.00;24.75;;;;;21.03;83.77;101580.78;5093701;27;49771;-76
2022/07/23 01:43:06;;;;;;;;;29.25;25.25;;;;;20.99;83.79;101579.94;5093288;27;49590;-76
2022/07/23 01:45:31;;;;;;;;;21.50;19.50;;;;;21.09;83.79;101586.94;5093717;27;49743;-75
2022/07/23 01:47:57;;;;;;;;;27.50;25.00;;;;;21.00;83.80;101562.13;5093203;27;57198;-76
2022/07/23 01:50:22;;;;;;;;;20.25;20.00;;;;;21.09;83.89;101578.94;5093536;27;49784;-72
2022/07/23 01:52:48;;;;;;;;;29.50;24.00;;;;;21.04;83.64;101567.44;5093656;27;50403;-76
2022/07/23 01:55:13;;;;;;;;;22.00;19.50;;;;;21.01;82.83;101562.09;5093818;27;49905;-68
2022/07/23 01:57:38;;;;;;;;;22.75;22.75;;;;;21.07;82.53;101587.88;5092761;27;49954;-66
2022/07/23 02:00:04;;;;;;;;;26.00;24.50;;;;;20.83;82.91;101555.16;5092868;27;51631;-72
2022/07/23 02:02:29;;;;;;;;;22.50;20.50;;;;;21.04;83.34;101582.56;5092095;27;49740;-66
2022/07/23 02:04:55;;;;;;;;;24.25;22.00;;;;;20.86;83.86;101547.13;5093443;27;49792;-71
2022/07/23 02:07:20;;;;;;;;;24.50;21.25;;;;;21.00;82.78;101576.34;5093320;27;49715;-69
2022/07/23 02:09:45;;;;;;;;;20.25;17.25;;;;;21.01;83.03;101577.25;5093105;27;49709;-69
2022/07/23 02:12:11;;;;;;;;;17.50;16.75;;;;;20.97;82.69;101567.50;5093329;27;49596;-71
2022/07/23 02:14:36;;;;;;;;;21.25;17.00;;;;;21.09;83.11;101580.72;5096824;27;49509;-73
2022/07/23 02:17:01;;;;;;;;;23.50;22.50;;;;;21.01;82.65;101574.56;5096518;27;50766;-66
2022/07/23 02:19:27;;;;;;;;;22.75;19.75;;;;;21.09;82.24;101588.75;5096745;27;49596;-72
2022/07/23 02:21:54;;;;;;;;;17.75;17.75;;;;;20.99;82.47;101568.38;5096777;27;49555;-71
2022/07/23 02:24:19;;;;;;;;;26.00;21.50;;;;;21.08;81.93;101593.19;5096804;27;49623;-67
2022/07/23 02:26:44;;;;;;;;;20.25;18.00;;;;;21.03;82.25;101588.78;5096271;27;49848;-66
2022/07/23 02:29:10;;;;;;;;;19.00;19.00;;;;;21.00;82.12;101592.38;5096392;27;49736;-66
2022/07/23 02:31:35;;;;;;;;;22.50;20.50;;;;;21.06;82.53;101597.66;5096465;27;49626;-75
2022/07/23 02:34:01;;;;;;;;;19.00;16.75;;;;;21.03;81.76;101607.47;5096586;27;49735;-67
2022/07/23 02:36:27;;;;;;;;;18.25;18.25;;;;;21.01;81.78;101604.81;5096235;27;49664;-69
2022/07/23 02:38:52;;;;;;;;;21.50;21.50;;;;;20.97;81.69;101605.75;5096225;27;49658;-71
2022/07/23 02:41:18;;;;;;;;;20.75;17.50;;;;;20.93;82.07;101606.66;5096111;27;49656;-72
2022/07/23 02:43:43;;;;;;;;;20.50;20.25;;;;;20.85;81.76;101593.41;5096240;27;49861;-73
2022/07/23 02:46:08;;;;;;;;;17.25;16.00;;;;;20.95;81.22;101610.22;5096257;27;50582;-68
2022/07/23 02:48:34;;;;;;;;;18.75;17.50;;;;;20.94;81.08;101619.13;5096246;27;49746;-67
2022/07/23 02:50:59;;;;;;;;;24.00;22.00;;;;;20.95;81.08;101614.69;5096192;27;49463;-68
2022/07/23 02:53:24;;;;;;;;;23.00;21.00;;;;;20.93;81.05;101613.78;5096276;27;50048;-67
2022/07/23 02:55:50;;;;;;;;;21.00;20.00;;;;;20.89;80.96;101598.72;5095935;27;49961;-68
2022/07/23 02:58:15;;;;;;;;;22.50;21.00;;;;;20.79;80.54;101590.78;5095460;27;51095;-71
2022/07/23 03:00:40;;;;;;;;;24.00;22.75;;;;;20.96;81.04;101619.13;5096151;27;49708;-70
2022/07/23 03:03:07;;;;;;;;;19.25;19.25;;;;;20.83;80.77;101610.31;5095901;27;49673;-72
2022/07/23 03:05:33;;;;;;;;;23.25;23.25;;;;;20.86;80.53;101621.88;5095861;27;51547;-67
2022/07/23 03:07:58;;;;;;;;;20.75;19.50;;;;;20.81;80.23;101622.78;5095749;27;49482;-68
2022/07/23 03:10:23;;;;;;;;;24.00;21.50;;;;;20.85;81.25;101632.56;5095654;27;49635;-74
2022/07/23 03:12:49;;;;;;;;;21.25;16.75;;;;;20.79;80.30;101630.81;5095677;27;49592;-75
2022/07/23 03:15:14;;;;;;;;;22.25;20.75;;;;;20.76;80.61;101628.16;5095541;27;49793;-70
2022/07/23 03:17:39;;;;;;;;;23.00;20.75;;;;;20.77;80.43;101635.28;5095689;27;49689;-73
2022/07/23 03:20:05;;;;;;;;;20.00;18.25;;;;;20.44;80.44;101577.69;5095835;27;49867;-66
2022/07/23 03:22:31;;;;;;;;;19.00;18.25;;;;;20.72;80.55;101628.19;5095983;27;49828;-74
2022/07/23 03:24:56;;;;;;;;;23.25;21.50;;;;;20.61;81.21;101600.72;5094191;27;51153;-74
2022/07/23 03:27:27;;;;;;;;;19.50;19.50;;;;;20.70;80.23;101630.00;5095273;27;49630;-76
2022/07/23 03:29:54;;;;;;;;;18.00;16.25;;;;;20.68;80.04;101631.78;5095652;27;49687;-66
2022/07/23 03:32:21;;;;;;;;;19.25;16.75;;;;;20.67;79.52;101646.03;5095622;27;49959;-75
2022/07/23 03:34:46;;;;;;;;;20.50;19.25;;;;;20.56;79.29;101638.09;5095334;27;49765;-73
2022/07/23 03:37:13;;;;;;;;;17.00;17.00;;;;;20.59;79.66;101635.41;5095439;27;49728;-75
2022/07/23 03:39:38;;;;;;;;;25.50;24.50;;;;;20.62;79.94;101632.69;5095277;27;49746;-66
2022/07/23 03:42:04;;;;;;;;;19.75;19.75;;;;;20.50;80.17;101611.44;5095431;27;49690;-73
2022/07/23 03:44:29;;;;;;;;;17.25;17.25;;;;;20.66;80.20;101642.47;5095243;27;49592;-66
2022/07/23 03:46:54;;;;;;;;;22.25;20.75;;;;;20.39;80.40;101591.94;5095144;27;49598;-75
2022/07/23 03:49:20;;;;;;;;;22.00;21.75;;;;;20.67;80.51;101640.69;5095478;27;49703;-66
2022/07/23 03:51:45;;;;;;;;;23.75;23.50;;;;;20.58;80.52;101620.28;5095493;27;49759;-74
2022/07/23 03:54:11;;;;;;;;;18.50;17.50;;;;;20.59;81.24;101619.41;5094876;27;50435;-67
2022/07/23 03:56:36;;;;;;;;;20.25;19.50;;;;;20.57;80.96;101615.84;5095030;27;49692;-76
2022/07/23 03:59:02;;;;;;;;;24.25;23.25;;;;;20.69;81.06;101637.09;5094898;27;49789;-68
2022/07/23 04:01:27;;;;;;;;;24.25;19.50;;;;;20.57;81.22;101624.75;5094997;27;49566;-76
2022/07/23 04:03:53;;;;;;;;;26.25;21.75;;;;;20.49;81.20;101626.56;5094822;27;50404;-76
2022/07/23 04:06:18;;;;;;;;;20.00;18.75;;;;;20.63;81.21;101647.81;5094975;27;49699;-69
2022/07/23 04:08:44;;;;;;;;;22.00;21.00;;;;;20.60;81.64;101645.16;5094958;27;49758;-70
2022/07/23 04:11:09;;;;;;;;;25.25;21.50;;;;;20.54;80.89;101646.09;5094993;27;49810;-76
2022/07/23 04:13:34;;;;;;;;;21.75;21.75;;;;;20.48;80.48;101635.47;5094339;27;50528;-77
2022/07/23 04:16:00;;;;;;;;;22.00;18.25;;;;;20.56;80.99;101649.66;5094862;27;49652;-76
2022/07/23 04:18:25;;;;;;;;;25.25;19.75;;;;;20.54;80.82;101648.75;5094783;27;49691;-76
2022/07/23 04:20:51;;;;;;;;;22.25;20.75;;;;;20.62;80.80;101655.81;5094964;27;49865;-76
2022/07/23 04:23:16;;;;;;;;;20.00;19.00;;;;;20.60;80.99;101642.50;5094499;27;50449;-76
2022/07/23 04:25:42;;;;;;;;;28.00;25.00;;;;;20.58;80.38;101649.63;5094534;27;49597;-72
2022/07/23 04:28:07;;;;;;;;;20.75;20.00;;;;;20.53;79.99;101648.75;5094784;27;49762;-77
2022/07/23 04:30:33;;;;;;;;;21.50;20.00;;;;;20.62;80.29;101658.50;5093498;27;49904;-76
2022/07/23 04:32:58;;;;;;;;;18.75;17.50;;;;;20.64;80.30;101664.69;5094365;27;51072;-68
2022/07/23 04:35:23;;;;;;;;;19.75;19.25;;;;;20.58;80.11;101649.63;5093897;27;55619;-67
2022/07/23 04:37:49;;;;;;;;;22.00;20.50;;;;;20.66;80.08;101652.25;5094346;27;49682;-68
2022/07/23 04:40:14;;;;;;;;;22.00;20.25;;;;;20.66;80.16;101665.59;5094253;27;49784;-70
2022/07/23 04:42:39;;;;;;;;;22.25;21.25;;;;;20.68;80.33;101666.47;5094074;27;50351;-66
2022/07/23 04:45:06;;;;;;;;;21.25;18.25;;;;;20.70;79.13;101670.91;5094380;27;49645;-68
2022/07/23 04:47:31;;;;;;;;;18.25;16.00;;;;;20.69;79.20;101669.13;5094416;27;49798;-67
2022/07/23 04:49:57;;;;;;;;;22.00;21.25;;;;;20.72;78.06;101674.44;5094435;27;49878;-66
2022/07/23 04:52:22;;;;;;;;;20.25;20.25;;;;;20.42;78.20;101629.25;5093986;27;49674;-66
2022/07/23 04:54:48;;;;;;;;;30.25;24.75;;;;;20.73;78.02;101673.53;5094345;27;49658;-66
2022/07/23 04:57:13;;;;;;;;;19.25;17.00;;;;;20.65;78.18;101659.34;5094060;27;50093;-70
2022/07/23 04:59:39;;;;;;;;;20.75;19.75;;;;;20.82;78.48;101683.25;5094169;27;49941;-66
2022/07/23 05:02:04;;;;;;;;;22.00;22.00;;;;;20.73;77.93;101659.31;5093878;27;51097;-71
2022/07/23 05:04:31;;;;;;;;;21.25;20.50;;;;;20.93;77.93;101676.06;5093958;27;49726;-68
2022/07/23 05:06:56;;;;;;;;;21.75;19.50;;;;;20.87;77.82;101657.44;5094149;27;49731;-66
2022/07/23 05:09:22;;;;;;;;;21.75;20.75;;;;;20.99;77.51;101675.16;5094222;27;49730;-69
2022/07/23 05:11:47;;;;;;;;;22.50;20.25;;;;;20.88;77.32;101653.00;5093452;27;49894;-80
2022/07/23 05:14:13;;;;;;;;;19.25;17.00;;;;;20.84;77.26;101645.00;5092733;27;49761;-69
2022/07/23 05:16:38;;;;;;;;;22.25;18.75;;;;;21.11;77.35;101680.38;5094107;27;49838;-68
2022/07/23 05:19:04;;;;;;;;;23.50;20.25;;;;;21.07;77.45;101668.84;5094215;27;49686;-68
2022/07/23 05:21:29;;;;;;;;;24.00;22.75;;;;;21.08;77.37;101667.06;5093634;27;50259;-68
2022/07/23 05:23:54;;;;;;;;;19.25;17.25;;;;;21.12;76.67;101666.13;5093793;27;49750;-68
2022/07/23 05:26:20;;;;;;;;;28.00;23.75;;;;;21.12;77.02;101676.81;5093993;27;49673;-68
2022/07/23 05:28:45;;;;;;;;;26.50;24.25;;;;;21.09;77.39;101675.06;5093727;27;49780;-68
2022/07/23 05:31:10;;;;;;;;;23.50;21.25;;;;;21.09;77.82;101676.84;5093708;27;50324;-68
2022/07/23 05:33:36;;;;;;;;;19.75;17.00;;;;;21.14;77.38;101675.03;5093897;27;49821;-69
2022/07/23 05:36:03;;;;;;;;;22.00;18.25;;;;;21.08;76.97;101662.59;5093773;27;49783;-70
2022/07/23 05:38:29;;;;;;;;;22.75;22.25;;;;;21.21;76.98;101676.72;5093752;27;50036;-69
2022/07/23 05:40:54;;;;;;;;;24.50;22.00;;;;;21.22;76.80;101675.81;5093507;27;50492;-72
2022/07/23 05:43:20;;;;;;;;;21.50;20.50;;;;;21.28;76.47;101685.63;5093673;27;49608;-69
2022/07/23 05:45:45;;;;;;;;;25.25;24.75;;;;;21.21;76.36;101671.38;5093375;27;49623;-74
2022/07/23 05:48:10;;;;;;;;;27.00;24.75;;;;;21.33;76.43;101671.34;5095520;27;49697;-68
2022/07/23 05:50:36;;;;;;;;;20.50;20.50;;;;;21.47;76.43;101686.34;5096966;27;49775;-70
2022/07/23 05:53:01;;;;;;;;;26.25;23.00;;;;;21.57;75.36;101682.69;5097148;27;49683;-68
2022/07/23 05:55:28;;;;;;;;;25.00;21.25;;;;;21.55;75.05;101672.00;5097177;27;49774;-74
2022/07/23 05:57:55;;;;;;;;;22.00;21.75;;;;;21.68;75.24;101670.97;5097280;27;49774;-74
2022/07/23 06:00:20;;;;;;;;;24.00;23.75;;;;;21.68;74.80;101656.72;5096537;27;49951;-72
2022/07/23 06:02:46;;;;;;;;;23.75;23.50;;;;;21.96;73.96;101687.59;5096948;27;49746;-73
2022/07/23 06:05:11;;;;;;;;;37.75;31.50;;;;;21.94;73.50;101691.19;5100106;27;49837;-72
2022/07/23 06:07:36;;;;;;;;;33.00;28.75;;;;;21.88;73.89;101677.88;5104845;27;49943;-73
2022/07/23 06:10:03;;;;;;;;;29.00;28.25;;;;;21.88;74.51;101685.91;5115224;27;50417;-73
2022/07/23 06:12:29;;;;;;;;;32.00;29.00;;;;;21.95;74.36;101683.16;5101671;27;49783;-72
2022/07/23 06:14:54;;;;;;;;;37.00;32.25;;;;;22.12;75.61;101696.34;5099733;27;51070;-73
2022/07/23 06:17:19;;;;;;;;;36.00;33.25;;;;;22.17;74.68;101693.63;5112086;27;50115;-69
2022/07/23 06:19:45;;;;;;;;;40.50;33.00;;;;;22.11;74.19;101689.25;5096176;27;50333;-72
2022/07/23 06:22:10;;;;;;;;;44.25;36.75;;;;;22.20;74.97;101698.94;5105037;27;49701;-64
2022/07/23 06:24:35;;;;;;;;;44.25;36.75;;;;;22.10;75.04;101690.16;5115000;27;49948;-72
2022/07/23 06:27:01;;;;;;;;;51.00;42.75;;;;;22.15;74.70;101706.13;5117497;27;49712;-69
2022/07/23 06:29:26;;;;;;;;;51.00;39.00;;;;;21.96;75.33;101674.22;5116781;27;51412;-75
2022/07/23 06:31:52;;;;;;;;;48.75;38.75;;;;;22.20;75.58;101715.88;5117012;27;49769;-75
2022/07/23 06:34:17;;;;;;;;;49.50;39.00;;;;;22.24;75.55;101720.28;5117125;27;49942;-75
2022/07/23 06:36:42;;;;;;;;;49.25;37.75;;;;;22.23;75.63;101712.28;5117054;27;49910;-72
2022/07/23 06:39:08;;;;;;;;;52.75;41.25;;;;;22.11;75.28;101702.63;5116810;27;50527;-74
2022/07/23 06:41:33;;;;;;;;;49.25;40.75;;;;;22.19;75.08;101710.53;5115605;27;49740;-74
2022/07/23 06:43:58;;;;;;;;;44.50;38.50;;;;;22.17;75.32;101715.00;5116698;27;49741;-72
2022/07/23 06:46:25;;;;;;;;;48.00;39.75;;;;;21.93;75.38;101676.94;5117276;27;50359;-73
2022/07/23 06:48:50;;;;;;;;;48.00;38.00;;;;;22.12;75.94;101704.38;5116895;27;50436;-69
2022/07/23 06:51:16;;;;;;;;;49.00;40.00;;;;;22.23;75.19;101710.47;5116747;27;49914;-71
2022/07/23 06:53:41;;;;;;;;;47.25;39.00;;;;;22.18;74.70;101708.75;5107503;27;50184;-74
2022/07/23 06:56:07;;;;;;;;;47.75;40.00;;;;;22.16;75.34;101714.13;5096499;27;49657;-79
2022/07/23 06:58:32;;;;;;;;;53.75;41.00;;;;;22.11;75.52;101704.41;5094429;27;52141;-77
2022/07/23 07:00:58;;;;;;;;;52.25;43.50;;;;;22.30;74.69;101716.66;5095840;27;49735;-79
2022/07/23 07:03:23;;;;;;;;;51.75;43.25;;;;;22.31;74.54;101734.47;5095786;27;49787;-75
2022/07/23 07:05:49;;;;;;;;;54.25;41.25;;;;;22.31;74.61;101733.59;5096262;27;50024;-76
2022/07/23 07:08:15;;;;;;;;;50.75;41.75;;;;;22.25;74.88;101740.75;5095694;27;49652;-80
2022/07/23 07:10:40;;;;;;;;;58.25;45.00;;;;;22.27;74.58;101735.38;5095601;27;49599;-67
2022/07/23 07:13:06;;;;;;;;;53.00;41.50;;;;;22.35;74.82;101743.31;5095908;27;49680;-68
2022/07/23 07:15:31;;;;;;;;;51.25;39.25;;;;;22.45;74.66;101740.50;5095932;27;49789;-65
2022/07/23 07:17:56;;;;;;;;;50.75;41.50;;;;;22.35;74.19;101722.81;5095424;27;50802;-66
2022/07/23 07:20:23;;;;;;;;;49.75;40.00;;;;;22.48;74.46;101743.13;5095409;27;49679;-76
2022/07/23 07:22:48;;;;;;;;;51.50;40.75;;;;;22.59;74.31;101726.09;5095785;27;49912;-63
2022/07/23 07:25:14;;;;;;;;;45.75;37.25;;;;;22.77;72.65;101749.91;5095756;27;49710;-64
2022/07/23 07:27:39;;;;;;;;;54.75;42.75;;;;;22.74;72.49;101744.59;5095336;27;50614;-65
2022/07/23 07:30:05;;;;;;;;;48.00;40.25;;;;;22.81;72.25;101751.66;5095195;27;49650;-65
2022/07/23 07:32:32;;;;;;;;;49.50;40.50;;;;;22.84;72.73;101740.91;5095432;27;49719;-74
2022/07/23 07:34:57;;;;;;;;;50.00;40.50;;;;;22.99;72.67;101745.19;5095574;27;49795;-73
